sensor_id;sensor_type;location;lat;lon;timestamp;temperature;humidity
32728;DHT22;55292;51.844;19.246;2022-12-18T00:02:51;-3.70;99.90
32728;DHT22;55292;51.844;19.246;2022-12-18T00:07:54;-3.60;99.90
32728;DHT22;55292;51.844;19.246;2022-12-18T00:12:57;-3.60;99.90
32728;DHT22;55292;51.844;19.246;2022-12-18T00:17:59;-3.60;99.90
32728;DHT22;55292;51.844;19.246;2022-12-18T00:23:02;-3.50;99.90
32728;DHT22;55292;51.844;19.246;2022-12-18T00:28:04;-3.50;99.90
32728;DHT22;55292;51.844;19.246;2022-12-18T00:33:07;-3.50;99.90
32728;DHT22;55292;51.844;19.246;2022-12-18T00:38:09;-3.50;99.90
32728;DHT22;55292;51.844;19.246;2022-12-18T00:43:12;-3.60;99.90
32728;DHT22;55292;51.844;19.246;2022-12-18T00:48:14;-3.50;99.90
32728;DHT22;55292;51.844;19.246;2022-12-18T00:53:17;-3.30;99.90
32728;DHT22;55292;51.844;19.246;2022-12-18T00:58:20;-3.20;99.90
32728;DHT22;55292;51.844;19.246;2022-12-18T01:03:22;-3.70;99.90
32728;DHT22;55292;51.844;19.246;2022-12-18T01:08:26;-3.90;99.90
32728;DHT22;55292;51.844;19.246;2022-12-18T01:13:28;-4.00;99.90
32728;DHT22;55292;51.844;19.246;2022-12-18T01:18:31;-4.00;99.90
32728;DHT22;55292;51.844;19.246;2022-12-18T01:23:33;-3.80;99.90
32728;DHT22;55292;51.844;19.246;2022-12-18T01:28:37;-1.60;99.90
32728;DHT22;55292;51.844;19.246;2022-12-18T01:33:41;-3.70;99.90
32728;DHT22;55292;51.844;19.246;2022-12-18T01:38:44;-3.60;99.90
32728;DHT22;55292;51.844;19.246;2022-12-18T01:43:57;-3.80;99.90
32728;DHT22;55292;51.844;19.246;2022-12-18T01:49:01;-3.80;99.90
32728;DHT22;55292;51.844;19.246;2022-12-18T01:54:04;-3.90;99.90
32728;DHT22;55292;51.844;19.246;2022-12-18T01:59:08;-3.80;99.90
32728;DHT22;55292;51.844;19.246;2022-12-18T02:04:26;-3.90;99.90
32728;DHT22;55292;51.844;19.246;2022-12-18T02:09:35;-3.80;99.90
32728;DHT22;55292;51.844;19.246;2022-12-18T02:20:14;-3.80;99.90
32728;DHT22;55292;51.844;19.246;2022-12-18T02:30:41;-3.90;99.90
32728;DHT22;55292;51.844;19.246;2022-12-18T02:35:45;-3.80;99.90
32728;DHT22;55292;51.844;19.246;2022-12-18T02:40:50;-3.80;99.90
32728;DHT22;55292;51.844;19.246;2022-12-18T02:45:57;-3.90;99.90
32728;DHT22;55292;51.844;19.246;2022-12-18T02:56:15;-3.90;99.90
32728;DHT22;55292;51.844;19.246;2022-12-18T03:01:28;-3.90;99.90
32728;DHT22;55292;51.844;19.246;2022-12-18T03:06:48;-3.90;99.90
32728;DHT22;55292;51.844;19.246;2022-12-18T03:12:02;-3.80;99.90
32728;DHT22;55292;51.844;19.246;2022-12-18T03:17:27;-3.80;99.90
32728;DHT22;55292;51.844;19.246;2022-12-18T03:22:33;-3.80;99.90
32728;DHT22;55292;51.844;19.246;2022-12-18T03:27:43;-3.80;99.90
32728;DHT22;55292;51.844;19.246;2022-12-18T03:32:58;-3.70;99.90
32728;DHT22;55292;51.844;19.246;2022-12-18T03:38:05;-3.80;99.90
32728;DHT22;55292;51.844;19.246;2022-12-18T03:48:43;-3.80;99.90
32728;DHT22;55292;51.844;19.246;2022-12-18T03:53:58;-3.70;99.90
32728;DHT22;55292;51.844;19.246;2022-12-18T03:59:07;-3.60;99.90
32728;DHT22;55292;51.844;19.246;2022-12-18T04:04:13;-3.60;99.90
32728;DHT22;55292;51.844;19.246;2022-12-18T04:09:19;-2.10;99.90
32728;DHT22;55292;51.844;19.246;2022-12-18T04:14:23;-3.70;99.90
32728;DHT22;55292;51.844;19.246;2022-12-18T04:19:29;-3.80;99.90
32728;DHT22;55292;51.844;19.246;2022-12-18T04:24:33;-3.70;99.90
32728;DHT22;55292;51.844;19.246;2022-12-18T04:29:42;-3.70;99.90
32728;DHT22;55292;51.844;19.246;2022-12-18T04:34:45;-3.60;99.90
32728;DHT22;55292;51.844;19.246;2022-12-18T04:39:48;-3.60;99.90
32728;DHT22;55292;51.844;19.246;2022-12-18T04:44:58;-3.70;99.90
32728;DHT22;55292;51.844;19.246;2022-12-18T04:50:00;-3.80;99.90
32728;DHT22;55292;51.844;19.246;2022-12-18T04:55:03;-3.70;99.90
32728;DHT22;55292;51.844;19.246;2022-12-18T05:00:06;-3.60;99.90
32728;DHT22;55292;51.844;19.246;2022-12-18T05:05:09;-3.60;99.90
32728;DHT22;55292;51.844;19.246;2022-12-18T05:10:12;-3.70;99.90
32728;DHT22;55292;51.844;19.246;2022-12-18T05:15:14;-3.70;99.90
32728;DHT22;55292;51.844;19.246;2022-12-18T05:20:18;-3.80;99.90
32728;DHT22;55292;51.844;19.246;2022-12-18T05:25:21;-2.30;99.90
32728;DHT22;55292;51.844;19.246;2022-12-18T05:30:23;-2.30;99.90
32728;DHT22;55292;51.844;19.246;2022-12-18T05:35:26;-3.80;99.90
32728;DHT22;55292;51.844;19.246;2022-12-18T05:40:29;-3.70;99.90
32728;DHT22;55292;51.844;19.246;2022-12-18T05:45:32;-3.80;99.90
32728;DHT22;55292;51.844;19.246;2022-12-18T05:50:40;-2.30;99.90
32728;DHT22;55292;51.844;19.246;2022-12-18T05:55:43;-3.80;99.90
32728;DHT22;55292;51.844;19.246;2022-12-18T06:00:46;-3.90;99.90
32728;DHT22;55292;51.844;19.246;2022-12-18T06:05:49;-3.90;99.90
32728;DHT22;55292;51.844;19.246;2022-12-18T06:10:52;-2.20;99.90
32728;DHT22;55292;51.844;19.246;2022-12-18T06:15:55;-3.90;99.90
32728;DHT22;55292;51.844;19.246;2022-12-18T06:20:59;-2.50;99.90
32728;DHT22;55292;51.844;19.246;2022-12-18T06:26:07;-4.00;99.90
32728;DHT22;55292;51.844;19.246;2022-12-18T06:31:10;-4.00;99.90
32728;DHT22;55292;51.844;19.246;2022-12-18T06:36:13;-2.60;99.90
32728;DHT22;55292;51.844;19.246;2022-12-18T06:41:19;-1.70;99.90
32728;DHT22;55292;51.844;19.246;2022-12-18T06:46:22;-4.10;99.90
32728;DHT22;55292;51.844;19.246;2022-12-18T06:51:25;-4.10;99.90
32728;DHT22;55292;51.844;19.246;2022-12-18T06:56:28;-4.00;99.90
32728;DHT22;55292;51.844;19.246;2022-12-18T07:01:31;-4.00;99.90
32728;DHT22;55292;51.844;19.246;2022-12-18T07:06:33;-4.00;99.90
32728;DHT22;55292;51.844;19.246;2022-12-18T07:11:36;-1.70;99.90
32728;DHT22;55292;51.844;19.246;2022-12-18T07:16:39;-4.10;99.90
32728;DHT22;55292;51.844;19.246;2022-12-18T07:21:41;-4.00;99.90
32728;DHT22;55292;51.844;19.246;2022-12-18T07:26:47;-4.00;99.90
32728;DHT22;55292;51.844;19.246;2022-12-18T07:31:49;-3.60;99.90
32728;DHT22;55292;51.844;19.246;2022-12-18T07:36:52;-3.70;99.90
32728;DHT22;55292;51.844;19.246;2022-12-18T07:41:54;-3.70;99.90
32728;DHT22;55292;51.844;19.246;2022-12-18T07:47:16;-3.70;99.90
32728;DHT22;55292;51.844;19.246;2022-12-18T07:52:18;-2.40;99.90
32728;DHT22;55292;51.844;19.246;2022-12-18T07:57:27;-3.60;99.90
32728;DHT22;55292;51.844;19.246;2022-12-18T08:02:49;-3.50;99.90
32728;DHT22;55292;51.844;19.246;2022-12-18T08:07:53;-3.60;99.90
32728;DHT22;55292;51.844;19.246;2022-12-18T08:12:55;-3.60;99.90
32728;DHT22;55292;51.844;19.246;2022-12-18T08:18:05;-3.60;99.90
32728;DHT22;55292;51.844;19.246;2022-12-18T08:23:15;-3.50;99.90
32728;DHT22;55292;51.844;19.246;2022-12-18T08:28:18;-3.30;99.90
32728;DHT22;55292;51.844;19.246;2022-12-18T08:33:21;-3.00;99.90
32728;DHT22;55292;51.844;19.246;2022-12-18T08:38:23;-2.20;99.90
32728;DHT22;55292;51.844;19.246;2022-12-18T08:43:26;-3.60;99.90
32728;DHT22;55292;51.844;19.246;2022-12-18T08:48:48;-3.90;99.90
32728;DHT22;55292;51.844;19.246;2022-12-18T08:53:53;-3.60;99.90
32728;DHT22;55292;51.844;19.246;2022-12-18T08:58:55;-2.20;99.90
32728;DHT22;55292;51.844;19.246;2022-12-18T09:04:01;-3.00;99.90
32728;DHT22;55292;51.844;19.246;2022-12-18T09:09:04;-2.40;99.90
32728;DHT22;55292;51.844;19.246;2022-12-18T09:14:08;-2.90;99.90
32728;DHT22;55292;51.844;19.246;2022-12-18T09:19:11;-3.30;99.90
32728;DHT22;55292;51.844;19.246;2022-12-18T09:24:14;-3.40;99.90
32728;DHT22;55292;51.844;19.246;2022-12-18T09:29:17;-3.00;99.90
32728;DHT22;55292;51.844;19.246;2022-12-18T09:34:20;-3.40;99.90
32728;DHT22;55292;51.844;19.246;2022-12-18T09:39:24;-3.30;99.90
32728;DHT22;55292;51.844;19.246;2022-12-18T09:44:27;-3.20;99.90
32728;DHT22;55292;51.844;19.246;2022-12-18T09:49:35;-3.40;99.90
32728;DHT22;55292;51.844;19.246;2022-12-18T09:54:41;-3.50;99.90
32728;DHT22;55292;51.844;19.246;2022-12-18T09:59:50;-3.00;99.90
32728;DHT22;55292;51.844;19.246;2022-12-18T10:05:12;-2.70;99.90
32728;DHT22;55292;51.844;19.246;2022-12-18T10:10:23;-2.80;99.90
32728;DHT22;55292;51.844;19.246;2022-12-18T10:15:36;-3.00;99.90
32728;DHT22;55292;51.844;19.246;2022-12-18T10:20:46;-2.80;99.90
32728;DHT22;55292;51.844;19.246;2022-12-18T10:26:07;-2.60;99.90
32728;DHT22;55292;51.844;19.246;2022-12-18T10:31:19;-2.60;99.90
32728;DHT22;55292;51.844;19.246;2022-12-18T10:36:25;-3.80;99.90
32728;DHT22;55292;51.844;19.246;2022-12-18T10:41:28;-4.00;99.90
32728;DHT22;55292;51.844;19.246;2022-12-18T10:46:33;-4.10;99.90
32728;DHT22;55292;51.844;19.246;2022-12-18T10:51:39;-4.10;99.90
32728;DHT22;55292;51.844;19.246;2022-12-18T10:56:42;-4.00;99.90
32728;DHT22;55292;51.844;19.246;2022-12-18T11:06:55;-3.40;99.90
32728;DHT22;55292;51.844;19.246;2022-12-18T11:12:00;-3.40;99.90
32728;DHT22;55292;51.844;19.246;2022-12-18T11:17:03;-2.40;99.90
32728;DHT22;55292;51.844;19.246;2022-12-18T11:27:31;-4.10;99.90
32728;DHT22;55292;51.844;19.246;2022-12-18T11:32:39;-4.10;99.90
32728;DHT22;55292;51.844;19.246;2022-12-18T11:37:48;-3.50;99.90
32728;DHT22;55292;51.844;19.246;2022-12-18T11:42:57;-1.80;99.90
32728;DHT22;55292;51.844;19.246;2022-12-18T11:53:13;-3.90;99.90
32728;DHT22;55292;51.844;19.246;2022-12-18T12:04:00;-4.30;99.90
32728;DHT22;55292;51.844;19.246;2022-12-18T12:09:16;-4.10;99.90
32728;DHT22;55292;51.844;19.246;2022-12-18T12:19:51;-4.30;99.90
32728;DHT22;55292;51.844;19.246;2022-12-18T12:41:22;-4.20;99.90
32728;DHT22;55292;51.844;19.246;2022-12-18T12:46:46;-4.30;99.90
32728;DHT22;55292;51.844;19.246;2022-12-18T12:52:00;-2.40;99.90
32728;DHT22;55292;51.844;19.246;2022-12-18T12:57:21;-4.60;99.90
32728;DHT22;55292;51.844;19.246;2022-12-18T13:02:56;-4.70;99.90
32728;DHT22;55292;51.844;19.246;2022-12-18T13:08:05;-4.80;99.90
32728;DHT22;55292;51.844;19.246;2022-12-18T13:13:13;-4.80;99.90
32728;DHT22;55292;51.844;19.246;2022-12-18T13:18:25;-4.90;99.90
32728;DHT22;55292;51.844;19.246;2022-12-18T13:29:46;-5.10;99.90
32728;DHT22;55292;51.844;19.246;2022-12-18T13:34:49;-4.40;99.90
32728;DHT22;55292;51.844;19.246;2022-12-18T13:51:06;-5.40;99.90
32728;DHT22;55292;51.844;19.246;2022-12-18T13:56:15;-5.40;99.90
32728;DHT22;55292;51.844;19.246;2022-12-18T14:01:23;-5.50;99.90
32728;DHT22;55292;51.844;19.246;2022-12-18T14:06:26;-5.40;99.90
32728;DHT22;55292;51.844;19.246;2022-12-18T14:11:29;-5.50;99.90
32728;DHT22;55292;51.844;19.246;2022-12-18T14:16:32;-5.40;99.90
32728;DHT22;55292;51.844;19.246;2022-12-18T14:21:38;-2.70;99.90
32728;DHT22;55292;51.844;19.246;2022-12-18T14:26:41;-5.50;99.90
32728;DHT22;55292;51.844;19.246;2022-12-18T14:31:44;-5.60;99.90
32728;DHT22;55292;51.844;19.246;2022-12-18T14:36:53;-4.60;99.90
32728;DHT22;55292;51.844;19.246;2022-12-18T14:41:58;-5.80;99.90
32728;DHT22;55292;51.844;19.246;2022-12-18T14:47:00;-5.60;99.90
32728;DHT22;55292;51.844;19.246;2022-12-18T14:52:15;-5.80;99.90
32728;DHT22;55292;51.844;19.246;2022-12-18T14:57:25;-5.90;99.90
32728;DHT22;55292;51.844;19.246;2022-12-18T15:02:35;-5.90;99.90
32728;DHT22;55292;51.844;19.246;2022-12-18T15:07:50;-5.90;99.90
32728;DHT22;55292;51.844;19.246;2022-12-18T15:18:20;-5.80;99.90
32728;DHT22;55292;51.844;19.246;2022-12-18T15:23:24;-5.80;99.90
32728;DHT22;55292;51.844;19.246;2022-12-18T15:28:39;-5.70;99.90
32728;DHT22;55292;51.844;19.246;2022-12-18T15:38:56;-5.60;99.90
32728;DHT22;55292;51.844;19.246;2022-12-18T15:44:36;-5.60;99.90
32728;DHT22;55292;51.844;19.246;2022-12-18T15:49:39;-5.70;99.90
32728;DHT22;55292;51.844;19.246;2022-12-18T15:54:42;-5.60;99.90
32728;DHT22;55292;51.844;19.246;2022-12-18T16:00:04;-5.70;99.90
32728;DHT22;55292;51.844;19.246;2022-12-18T16:05:17;-5.70;99.90
32728;DHT22;55292;51.844;19.246;2022-12-18T16:10:20;-5.80;99.90
32728;DHT22;55292;51.844;19.246;2022-12-18T16:15:22;-5.90;99.90
32728;DHT22;55292;51.844;19.246;2022-12-18T16:20:26;-6.10;99.90
32728;DHT22;55292;51.844;19.246;2022-12-18T16:25:29;-6.40;99.90
32728;DHT22;55292;51.844;19.246;2022-12-18T16:30:31;-6.40;99.90
32728;DHT22;55292;51.844;19.246;2022-12-18T16:35:40;-6.20;99.90
32728;DHT22;55292;51.844;19.246;2022-12-18T16:40:43;-6.20;99.90
32728;DHT22;55292;51.844;19.246;2022-12-18T16:46:06;-6.40;99.90
32728;DHT22;55292;51.844;19.246;2022-12-18T16:56:11;-6.20;99.90
32728;DHT22;55292;51.844;19.246;2022-12-18T17:01:14;-6.50;99.90
32728;DHT22;55292;51.844;19.246;2022-12-18T17:06:17;-6.40;99.90
32728;DHT22;55292;51.844;19.246;2022-12-18T17:11:20;-6.30;99.90
32728;DHT22;55292;51.844;19.246;2022-12-18T17:16:23;-6.40;99.90
32728;DHT22;55292;51.844;19.246;2022-12-18T17:21:26;-7.30;99.90
32728;DHT22;55292;51.844;19.246;2022-12-18T17:26:29;-6.10;99.90
32728;DHT22;55292;51.844;19.246;2022-12-18T17:31:33;-5.90;99.90
32728;DHT22;55292;51.844;19.246;2022-12-18T17:36:36;-5.90;99.90
32728;DHT22;55292;51.844;19.246;2022-12-18T17:41:39;-5.80;99.90
32728;DHT22;55292;51.844;19.246;2022-12-18T17:46:41;-6.00;99.90
32728;DHT22;55292;51.844;19.246;2022-12-18T17:51:45;-6.20;99.90
32728;DHT22;55292;51.844;19.246;2022-12-18T17:56:47;-6.30;99.90
32728;DHT22;55292;51.844;19.246;2022-12-18T18:01:51;-6.20;99.90
32728;DHT22;55292;51.844;19.246;2022-12-18T18:06:54;-6.00;99.90
32728;DHT22;55292;51.844;19.246;2022-12-18T18:11:56;-2.30;99.90
32728;DHT22;55292;51.844;19.246;2022-12-18T18:17:36;-6.00;99.90
32728;DHT22;55292;51.844;19.246;2022-12-18T18:22:38;-6.20;99.90
32728;DHT22;55292;51.844;19.246;2022-12-18T18:27:41;-6.10;99.90
32728;DHT22;55292;51.844;19.246;2022-12-18T18:32:45;-6.10;99.90
32728;DHT22;55292;51.844;19.246;2022-12-18T18:37:48;-6.10;99.90
32728;DHT22;55292;51.844;19.246;2022-12-18T18:42:52;-6.00;99.90
32728;DHT22;55292;51.844;19.246;2022-12-18T18:47:55;-6.00;99.90
32728;DHT22;55292;51.844;19.246;2022-12-18T18:52:57;-6.20;99.90
32728;DHT22;55292;51.844;19.246;2022-12-18T18:58:00;-6.20;99.90
32728;DHT22;55292;51.844;19.246;2022-12-18T19:03:13;-6.00;99.90
32728;DHT22;55292;51.844;19.246;2022-12-18T19:08:16;-6.00;99.90
32728;DHT22;55292;51.844;19.246;2022-12-18T19:13:19;-6.00;99.90
32728;DHT22;55292;51.844;19.246;2022-12-18T19:18:22;-5.90;99.90
32728;DHT22;55292;51.844;19.246;2022-12-18T19:23:25;-5.90;99.90
32728;DHT22;55292;51.844;19.246;2022-12-18T19:28:32;-6.10;99.90
32728;DHT22;55292;51.844;19.246;2022-12-18T19:33:38;-6.10;99.90
32728;DHT22;55292;51.844;19.246;2022-12-18T19:38:47;-6.30;99.90
32728;DHT22;55292;51.844;19.246;2022-12-18T19:43:50;-6.30;99.90
32728;DHT22;55292;51.844;19.246;2022-12-18T19:48:53;-6.20;99.90
32728;DHT22;55292;51.844;19.246;2022-12-18T19:53:57;-6.20;99.90
32728;DHT22;55292;51.844;19.246;2022-12-18T19:59:04;-6.20;99.90
32728;DHT22;55292;51.844;19.246;2022-12-18T20:04:06;-6.20;99.90
32728;DHT22;55292;51.844;19.246;2022-12-18T20:09:10;-6.40;99.90
32728;DHT22;55292;51.844;19.246;2022-12-18T20:14:14;-6.40;99.90
32728;DHT22;55292;51.844;19.246;2022-12-18T20:19:25;-6.50;99.90
32728;DHT22;55292;51.844;19.246;2022-12-18T20:24:28;-6.30;99.90
32728;DHT22;55292;51.844;19.246;2022-12-18T20:29:31;-6.30;99.90
32728;DHT22;55292;51.844;19.246;2022-12-18T20:34:34;-6.50;99.90
32728;DHT22;55292;51.844;19.246;2022-12-18T20:39:37;-6.60;99.90
32728;DHT22;55292;51.844;19.246;2022-12-18T20:44:41;-6.50;99.90
32728;DHT22;55292;51.844;19.246;2022-12-18T20:49:43;-3.10;99.90
32728;DHT22;55292;51.844;19.246;2022-12-18T20:54:47;-6.40;99.90
32728;DHT22;55292;51.844;19.246;2022-12-18T20:59:49;-3.30;99.90
32728;DHT22;55292;51.844;19.246;2022-12-18T21:04:52;-6.30;99.90
32728;DHT22;55292;51.844;19.246;2022-12-18T21:09:55;-6.40;99.90
32728;DHT22;55292;51.844;19.246;2022-12-18T21:14:59;-6.30;99.90
32728;DHT22;55292;51.844;19.246;2022-12-18T21:20:03;-6.00;99.90
32728;DHT22;55292;51.844;19.246;2022-12-18T21:25:07;-6.00;99.90
32728;DHT22;55292;51.844;19.246;2022-12-18T21:30:11;-6.10;99.90
32728;DHT22;55292;51.844;19.246;2022-12-18T21:35:15;-6.10;99.90
32728;DHT22;55292;51.844;19.246;2022-12-18T21:40:18;-6.00;99.90
32728;DHT22;55292;51.844;19.246;2022-12-18T21:45:21;-6.10;99.90
32728;DHT22;55292;51.844;19.246;2022-12-18T21:50:23;-6.00;99.90
32728;DHT22;55292;51.844;19.246;2022-12-18T21:55:26;-6.10;99.90
32728;DHT22;55292;51.844;19.246;2022-12-18T22:00:28;-2.70;99.90
32728;DHT22;55292;51.844;19.246;2022-12-18T22:05:31;-6.10;99.90
32728;DHT22;55292;51.844;19.246;2022-12-18T22:10:34;-6.10;99.90
32728;DHT22;55292;51.844;19.246;2022-12-18T22:15:36;-6.00;99.90
32728;DHT22;55292;51.844;19.246;2022-12-18T22:20:39;-6.00;99.90
32728;DHT22;55292;51.844;19.246;2022-12-18T22:25:41;-3.20;99.90
32728;DHT22;55292;51.844;19.246;2022-12-18T22:30:44;-5.80;99.90
32728;DHT22;55292;51.844;19.246;2022-12-18T22:35:46;-3.30;99.90
32728;DHT22;55292;51.844;19.246;2022-12-18T22:40:52;-5.80;99.90
32728;DHT22;55292;51.844;19.246;2022-12-18T22:45:56;-5.90;99.90
32728;DHT22;55292;51.844;19.246;2022-12-18T22:50:59;-5.80;99.90
32728;DHT22;55292;51.844;19.246;2022-12-18T22:56:02;-6.00;99.90
32728;DHT22;55292;51.844;19.246;2022-12-18T23:01:05;-6.10;99.90
32728;DHT22;55292;51.844;19.246;2022-12-18T23:06:09;-6.10;99.90
32728;DHT22;55292;51.844;19.246;2022-12-18T23:11:12;-3.30;99.90
32728;DHT22;55292;51.844;19.246;2022-12-18T23:16:18;-6.50;99.90
32728;DHT22;55292;51.844;19.246;2022-12-18T23:21:22;-6.50;99.90
32728;DHT22;55292;51.844;19.246;2022-12-18T23:26:26;-6.80;99.90
32728;DHT22;55292;51.844;19.246;2022-12-18T23:31:34;-6.90;99.90
32728;DHT22;55292;51.844;19.246;2022-12-18T23:36:37;-7.00;99.90
32728;DHT22;55292;51.844;19.246;2022-12-18T23:41:48;-7.20;99.90
32728;DHT22;55292;51.844;19.246;2022-12-18T23:51:54;-7.40;99.90
32728;DHT22;55292;51.844;19.246;2022-12-18T23:56:57;-7.50;99.90
